sensor_id;sensor_type;location;lat;lon;timestamp;temperature;humidity
40257;DHT22;25977;45.462;9.210;2024-03-02T00:00:06;12.40;99.90
40257;DHT22;25977;45.462;9.210;2024-03-02T00:02:44;12.50;99.90
40257;DHT22;25977;45.462;9.210;2024-03-02T00:05:15;12.50;99.90
40257;DHT22;25977;45.462;9.210;2024-03-02T00:07:45;12.50;99.90
40257;DHT22;25977;45.462;9.210;2024-03-02T00:10:16;12.50;99.90
40257;DHT22;25977;45.462;9.210;2024-03-02T00:12:47;12.50;99.90
40257;DHT22;25977;45.462;9.210;2024-03-02T00:18:02;12.50;99.90
40257;DHT22;25977;45.462;9.210;2024-03-02T00:20:30;12.50;99.90
40257;DHT22;25977;45.462;9.210;2024-03-02T00:23:07;12.60;99.90
40257;DHT22;25977;45.462;9.210;2024-03-02T00:25:44;12.60;99.90
40257;DHT22;25977;45.462;9.210;2024-03-02T00:28:16;12.60;99.90
40257;DHT22;25977;45.462;9.210;2024-03-02T00:33:21;12.50;99.90
40257;DHT22;25977;45.462;9.210;2024-03-02T00:35:48;12.50;99.90
40257;DHT22;25977;45.462;9.210;2024-03-02T00:38:14;12.50;99.90
40257;DHT22;25977;45.462;9.210;2024-03-02T00:40:44;12.50;99.90
40257;DHT22;25977;45.462;9.210;2024-03-02T00:43:43;12.50;99.90
40257;DHT22;25977;45.462;9.210;2024-03-02T00:46:12;12.50;99.90
40257;DHT22;25977;45.462;9.210;2024-03-02T00:48:47;12.50;99.90
40257;DHT22;25977;45.462;9.210;2024-03-02T00:51:13;12.60;99.90
40257;DHT22;25977;45.462;9.210;2024-03-02T00:53:39;12.50;99.90
40257;DHT22;25977;45.462;9.210;2024-03-02T00:56:09;12.50;99.90
40257;DHT22;25977;45.462;9.210;2024-03-02T00:58:39;12.50;99.90
40257;DHT22;25977;45.462;9.210;2024-03-02T01:01:05;12.40;99.90
40257;DHT22;25977;45.462;9.210;2024-03-02T01:03:32;12.50;99.90
40257;DHT22;25977;45.462;9.210;2024-03-02T01:05:58;12.40;99.90
40257;DHT22;25977;45.462;9.210;2024-03-02T01:08:24;12.50;99.90
40257;DHT22;25977;45.462;9.210;2024-03-02T01:10:51;12.50;99.90
40257;DHT22;25977;45.462;9.210;2024-03-02T01:13:16;12.40;99.90
40257;DHT22;25977;45.462;9.210;2024-03-02T01:15:42;12.40;99.90
40257;DHT22;25977;45.462;9.210;2024-03-02T01:18:08;12.50;99.90
40257;DHT22;25977;45.462;9.210;2024-03-02T01:20:34;12.50;99.90
40257;DHT22;25977;45.462;9.210;2024-03-02T01:22:59;12.50;99.90
40257;DHT22;25977;45.462;9.210;2024-03-02T01:25:25;12.50;99.90
40257;DHT22;25977;45.462;9.210;2024-03-02T01:27:51;12.60;99.90
40257;DHT22;25977;45.462;9.210;2024-03-02T01:30:17;12.60;99.90
40257;DHT22;25977;45.462;9.210;2024-03-02T01:32:42;12.60;99.90
40257;DHT22;25977;45.462;9.210;2024-03-02T01:35:08;12.60;99.90
40257;DHT22;25977;45.462;9.210;2024-03-02T01:37:34;12.60;99.90
40257;DHT22;25977;45.462;9.210;2024-03-02T01:40:00;12.50;99.90
40257;DHT22;25977;45.462;9.210;2024-03-02T01:42:26;12.50;99.90
40257;DHT22;25977;45.462;9.210;2024-03-02T01:44:52;12.50;99.90
40257;DHT22;25977;45.462;9.210;2024-03-02T01:47:18;12.50;99.90
40257;DHT22;25977;45.462;9.210;2024-03-02T01:49:44;12.50;99.90
40257;DHT22;25977;45.462;9.210;2024-03-02T01:52:10;12.40;99.90
40257;DHT22;25977;45.462;9.210;2024-03-02T01:54:36;12.40;99.90
40257;DHT22;25977;45.462;9.210;2024-03-02T01:57:03;12.40;99.90
40257;DHT22;25977;45.462;9.210;2024-03-02T01:59:29;12.40;99.90
40257;DHT22;25977;45.462;9.210;2024-03-02T02:01:55;12.30;99.90
40257;DHT22;25977;45.462;9.210;2024-03-02T02:04:20;12.30;99.90
40257;DHT22;25977;45.462;9.210;2024-03-02T02:06:52;12.30;99.90
40257;DHT22;25977;45.462;9.210;2024-03-02T02:09:18;12.40;99.90
40257;DHT22;25977;45.462;9.210;2024-03-02T02:11:43;12.40;99.90
40257;DHT22;25977;45.462;9.210;2024-03-02T02:14:09;12.40;99.90
40257;DHT22;25977;45.462;9.210;2024-03-02T02:16:35;12.50;99.90
40257;DHT22;25977;45.462;9.210;2024-03-02T02:19:01;12.50;99.90
40257;DHT22;25977;45.462;9.210;2024-03-02T02:21:26;12.30;99.90
40257;DHT22;25977;45.462;9.210;2024-03-02T02:23:52;12.40;99.90
40257;DHT22;25977;45.462;9.210;2024-03-02T02:26:18;12.30;99.90
40257;DHT22;25977;45.462;9.210;2024-03-02T02:28:44;12.30;99.90
40257;DHT22;25977;45.462;9.210;2024-03-02T02:31:13;12.20;99.90
40257;DHT22;25977;45.462;9.210;2024-03-02T02:33:42;12.20;99.90
40257;DHT22;25977;45.462;9.210;2024-03-02T02:36:08;12.10;99.90
40257;DHT22;25977;45.462;9.210;2024-03-02T02:38:39;11.90;99.90
40257;DHT22;25977;45.462;9.210;2024-03-02T02:41:05;12.00;99.90
40257;DHT22;25977;45.462;9.210;2024-03-02T02:43:31;12.10;99.90
40257;DHT22;25977;45.462;9.210;2024-03-02T02:45:57;12.00;99.90
40257;DHT22;25977;45.462;9.210;2024-03-02T02:48:22;11.90;99.90
40257;DHT22;25977;45.462;9.210;2024-03-02T02:50:48;12.00;99.90
40257;DHT22;25977;45.462;9.210;2024-03-02T02:53:14;12.00;99.90
40257;DHT22;25977;45.462;9.210;2024-03-02T02:55:40;12.10;99.90
40257;DHT22;25977;45.462;9.210;2024-03-02T02:58:07;12.20;99.90
40257;DHT22;25977;45.462;9.210;2024-03-02T03:00:32;12.30;99.90
40257;DHT22;25977;45.462;9.210;2024-03-02T03:02:58;12.30;99.90
40257;DHT22;25977;45.462;9.210;2024-03-02T03:05:24;12.30;99.90
40257;DHT22;25977;45.462;9.210;2024-03-02T03:07:49;12.30;99.90
40257;DHT22;25977;45.462;9.210;2024-03-02T03:10:16;12.30;99.90
40257;DHT22;25977;45.462;9.210;2024-03-02T03:12:42;12.40;99.90
40257;DHT22;25977;45.462;9.210;2024-03-02T03:15:09;12.40;99.90
40257;DHT22;25977;45.462;9.210;2024-03-02T03:17:35;12.40;99.90
40257;DHT22;25977;45.462;9.210;2024-03-02T03:20:02;12.40;99.90
40257;DHT22;25977;45.462;9.210;2024-03-02T03:22:32;12.30;99.90
40257;DHT22;25977;45.462;9.210;2024-03-02T03:24:59;12.40;99.90
40257;DHT22;25977;45.462;9.210;2024-03-02T03:27:25;12.40;99.90
40257;DHT22;25977;45.462;9.210;2024-03-02T03:29:50;12.40;99.90
40257;DHT22;25977;45.462;9.210;2024-03-02T03:32:16;12.40;99.90
40257;DHT22;25977;45.462;9.210;2024-03-02T03:34:42;12.40;99.90
40257;DHT22;25977;45.462;9.210;2024-03-02T03:37:08;12.40;99.90
40257;DHT22;25977;45.462;9.210;2024-03-02T03:39:34;12.40;99.90
40257;DHT22;25977;45.462;9.210;2024-03-02T03:42:01;12.40;99.90
40257;DHT22;25977;45.462;9.210;2024-03-02T03:44:27;12.40;99.90
40257;DHT22;25977;45.462;9.210;2024-03-02T03:46:53;12.30;99.90
40257;DHT22;25977;45.462;9.210;2024-03-02T03:49:19;12.20;99.90
40257;DHT22;25977;45.462;9.210;2024-03-02T03:51:46;12.30;99.90
40257;DHT22;25977;45.462;9.210;2024-03-02T03:54:12;12.30;99.90
40257;DHT22;25977;45.462;9.210;2024-03-02T03:56:38;12.30;99.90
40257;DHT22;25977;45.462;9.210;2024-03-02T03:59:04;12.30;99.90
40257;DHT22;25977;45.462;9.210;2024-03-02T04:01:30;12.30;99.90
40257;DHT22;25977;45.462;9.210;2024-03-02T04:03:57;12.40;99.90
40257;DHT22;25977;45.462;9.210;2024-03-02T04:06:23;12.40;99.90
40257;DHT22;25977;45.462;9.210;2024-03-02T04:08:49;12.40;99.90
40257;DHT22;25977;45.462;9.210;2024-03-02T04:11:15;12.40;99.90
40257;DHT22;25977;45.462;9.210;2024-03-02T04:13:40;12.40;99.90
40257;DHT22;25977;45.462;9.210;2024-03-02T04:16:06;12.40;99.90
40257;DHT22;25977;45.462;9.210;2024-03-02T04:18:32;12.40;99.90
40257;DHT22;25977;45.462;9.210;2024-03-02T04:20:58;12.30;99.90
40257;DHT22;25977;45.462;9.210;2024-03-02T04:23:25;12.40;99.90
40257;DHT22;25977;45.462;9.210;2024-03-02T04:25:51;12.40;99.90
40257;DHT22;25977;45.462;9.210;2024-03-02T04:28:17;12.30;99.90
40257;DHT22;25977;45.462;9.210;2024-03-02T04:30:42;12.40;99.90
40257;DHT22;25977;45.462;9.210;2024-03-02T04:33:08;12.40;99.90
40257;DHT22;25977;45.462;9.210;2024-03-02T04:35:38;12.30;99.90
40257;DHT22;25977;45.462;9.210;2024-03-02T04:38:04;12.40;99.90
40257;DHT22;25977;45.462;9.210;2024-03-02T04:40:30;12.40;99.90
40257;DHT22;25977;45.462;9.210;2024-03-02T04:42:55;12.40;99.90
40257;DHT22;25977;45.462;9.210;2024-03-02T04:45:21;12.40;99.90
40257;DHT22;25977;45.462;9.210;2024-03-02T04:47:47;12.40;99.90
40257;DHT22;25977;45.462;9.210;2024-03-02T04:50:12;12.40;99.90
40257;DHT22;25977;45.462;9.210;2024-03-02T04:52:38;12.40;99.90
40257;DHT22;25977;45.462;9.210;2024-03-02T04:55:04;12.40;99.90
40257;DHT22;25977;45.462;9.210;2024-03-02T04:57:43;12.40;99.90
40257;DHT22;25977;45.462;9.210;2024-03-02T05:00:10;12.40;99.90
40257;DHT22;25977;45.462;9.210;2024-03-02T05:02:36;12.30;99.90
40257;DHT22;25977;45.462;9.210;2024-03-02T05:05:02;12.30;99.90
40257;DHT22;25977;45.462;9.210;2024-03-02T05:07:28;12.30;99.90
40257;DHT22;25977;45.462;9.210;2024-03-02T05:09:54;12.30;99.90
40257;DHT22;25977;45.462;9.210;2024-03-02T05:12:19;12.30;99.90
40257;DHT22;25977;45.462;9.210;2024-03-02T05:15:20;12.40;99.90
40257;DHT22;25977;45.462;9.210;2024-03-02T05:17:47;12.40;99.90
40257;DHT22;25977;45.462;9.210;2024-03-02T05:20:12;12.30;99.90
40257;DHT22;25977;45.462;9.210;2024-03-02T05:22:38;12.40;99.90
40257;DHT22;25977;45.462;9.210;2024-03-02T05:25:05;12.40;99.90
40257;DHT22;25977;45.462;9.210;2024-03-02T05:27:31;12.40;99.90
40257;DHT22;25977;45.462;9.210;2024-03-02T05:29:58;12.50;99.90
40257;DHT22;25977;45.462;9.210;2024-03-02T05:32:24;12.40;99.90
40257;DHT22;25977;45.462;9.210;2024-03-02T05:34:50;12.30;99.90
40257;DHT22;25977;45.462;9.210;2024-03-02T05:37:18;12.40;99.90
40257;DHT22;25977;45.462;9.210;2024-03-02T05:39:46;12.30;99.90
40257;DHT22;25977;45.462;9.210;2024-03-02T05:42:11;12.30;99.90
40257;DHT22;25977;45.462;9.210;2024-03-02T05:44:37;12.30;99.90
40257;DHT22;25977;45.462;9.210;2024-03-02T05:47:03;12.30;99.90
40257;DHT22;25977;45.462;9.210;2024-03-02T05:49:29;12.30;99.90
40257;DHT22;25977;45.462;9.210;2024-03-02T05:51:55;12.40;99.90
40257;DHT22;25977;45.462;9.210;2024-03-02T05:54:21;12.30;99.90
40257;DHT22;25977;45.462;9.210;2024-03-02T05:56:46;12.30;99.90
40257;DHT22;25977;45.462;9.210;2024-03-02T05:59:12;12.30;99.90
40257;DHT22;25977;45.462;9.210;2024-03-02T06:01:39;12.30;99.90
40257;DHT22;25977;45.462;9.210;2024-03-02T06:04:05;12.30;99.90
40257;DHT22;25977;45.462;9.210;2024-03-02T06:06:31;12.30;99.90
40257;DHT22;25977;45.462;9.210;2024-03-02T06:09:00;12.20;99.90
40257;DHT22;25977;45.462;9.210;2024-03-02T06:11:25;12.30;99.90
40257;DHT22;25977;45.462;9.210;2024-03-02T06:13:51;12.30;99.90
40257;DHT22;25977;45.462;9.210;2024-03-02T06:16:17;12.10;99.90
40257;DHT22;25977;45.462;9.210;2024-03-02T06:18:42;12.10;99.90
40257;DHT22;25977;45.462;9.210;2024-03-02T06:21:08;12.10;99.90
40257;DHT22;25977;45.462;9.210;2024-03-02T06:23:34;12.20;99.90
40257;DHT22;25977;45.462;9.210;2024-03-02T06:26:00;12.10;99.90
40257;DHT22;25977;45.462;9.210;2024-03-02T06:28:26;12.20;99.90
40257;DHT22;25977;45.462;9.210;2024-03-02T06:30:52;12.20;99.90
40257;DHT22;25977;45.462;9.210;2024-03-02T06:33:17;12.20;99.90
40257;DHT22;25977;45.462;9.210;2024-03-02T06:35:43;12.10;99.90
40257;DHT22;25977;45.462;9.210;2024-03-02T06:38:09;12.10;99.90
40257;DHT22;25977;45.462;9.210;2024-03-02T06:40:34;12.20;99.90
40257;DHT22;25977;45.462;9.210;2024-03-02T06:43:00;12.20;99.90
40257;DHT22;25977;45.462;9.210;2024-03-02T06:45:26;12.20;99.90
40257;DHT22;25977;45.462;9.210;2024-03-02T06:47:52;12.20;99.90
40257;DHT22;25977;45.462;9.210;2024-03-02T06:50:17;12.30;99.90
40257;DHT22;25977;45.462;9.210;2024-03-02T06:52:44;12.30;99.90
40257;DHT22;25977;45.462;9.210;2024-03-02T06:55:10;12.10;99.90
40257;DHT22;25977;45.462;9.210;2024-03-02T06:57:36;12.20;99.90
40257;DHT22;25977;45.462;9.210;2024-03-02T07:00:01;11.90;99.90
40257;DHT22;25977;45.462;9.210;2024-03-02T07:02:30;11.70;99.90
40257;DHT22;25977;45.462;9.210;2024-03-02T07:04:56;11.90;99.90
40257;DHT22;25977;45.462;9.210;2024-03-02T07:07:21;11.70;99.90
40257;DHT22;25977;45.462;9.210;2024-03-02T07:09:47;11.90;99.90
40257;DHT22;25977;45.462;9.210;2024-03-02T07:12:13;12.00;99.90
40257;DHT22;25977;45.462;9.210;2024-03-02T07:14:39;12.00;99.90
40257;DHT22;25977;45.462;9.210;2024-03-02T07:17:23;12.10;99.90
40257;DHT22;25977;45.462;9.210;2024-03-02T07:19:50;11.80;99.90
40257;DHT22;25977;45.462;9.210;2024-03-02T07:22:15;11.90;99.90
40257;DHT22;25977;45.462;9.210;2024-03-02T07:24:42;11.90;99.90
40257;DHT22;25977;45.462;9.210;2024-03-02T07:27:11;11.60;99.90
40257;DHT22;25977;45.462;9.210;2024-03-02T07:29:38;11.60;99.90
40257;DHT22;25977;45.462;9.210;2024-03-02T07:32:04;11.70;99.90
40257;DHT22;25977;45.462;9.210;2024-03-02T07:34:30;11.70;99.90
40257;DHT22;25977;45.462;9.210;2024-03-02T07:36:56;11.80;99.90
40257;DHT22;25977;45.462;9.210;2024-03-02T07:39:22;11.70;99.90
40257;DHT22;25977;45.462;9.210;2024-03-02T07:41:49;11.80;99.90
40257;DHT22;25977;45.462;9.210;2024-03-02T07:44:14;11.90;99.90
40257;DHT22;25977;45.462;9.210;2024-03-02T07:46:44;11.80;99.90
40257;DHT22;25977;45.462;9.210;2024-03-02T07:49:10;11.70;99.90
40257;DHT22;25977;45.462;9.210;2024-03-02T07:51:36;11.60;99.90
40257;DHT22;25977;45.462;9.210;2024-03-02T07:54:04;11.70;99.90
40257;DHT22;25977;45.462;9.210;2024-03-02T07:56:30;11.70;99.90
40257;DHT22;25977;45.462;9.210;2024-03-02T07:58:56;11.70;99.90
40257;DHT22;25977;45.462;9.210;2024-03-02T08:01:28;11.80;99.90
40257;DHT22;25977;45.462;9.210;2024-03-02T08:03:59;11.70;99.90
40257;DHT22;25977;45.462;9.210;2024-03-02T08:06:26;11.70;99.90
40257;DHT22;25977;45.462;9.210;2024-03-02T08:09:00;11.40;99.90
40257;DHT22;25977;45.462;9.210;2024-03-02T08:11:26;11.50;99.90
40257;DHT22;25977;45.462;9.210;2024-03-02T08:13:56;11.60;99.90
40257;DHT22;25977;45.462;9.210;2024-03-02T08:16:24;11.50;99.90
40257;DHT22;25977;45.462;9.210;2024-03-02T08:18:51;11.60;99.90
40257;DHT22;25977;45.462;9.210;2024-03-02T08:21:17;11.50;99.90
40257;DHT22;25977;45.462;9.210;2024-03-02T08:23:43;11.50;99.90
40257;DHT22;25977;45.462;9.210;2024-03-02T08:26:09;11.60;99.90
40257;DHT22;25977;45.462;9.210;2024-03-02T08:28:35;11.50;99.90
40257;DHT22;25977;45.462;9.210;2024-03-02T08:31:06;11.50;99.90
40257;DHT22;25977;45.462;9.210;2024-03-02T08:33:32;11.50;99.90
40257;DHT22;25977;45.462;9.210;2024-03-02T08:35:58;11.60;99.90
40257;DHT22;25977;45.462;9.210;2024-03-02T08:38:24;11.60;99.90
40257;DHT22;25977;45.462;9.210;2024-03-02T08:40:51;11.70;99.90
40257;DHT22;25977;45.462;9.210;2024-03-02T08:43:17;11.60;99.90
40257;DHT22;25977;45.462;9.210;2024-03-02T08:45:43;11.70;99.90
40257;DHT22;25977;45.462;9.210;2024-03-02T08:48:08;11.70;99.90
40257;DHT22;25977;45.462;9.210;2024-03-02T08:50:35;11.80;99.90
40257;DHT22;25977;45.462;9.210;2024-03-02T08:53:00;11.80;99.90
40257;DHT22;25977;45.462;9.210;2024-03-02T08:55:26;12.00;99.90
40257;DHT22;25977;45.462;9.210;2024-03-02T08:57:52;12.10;99.90
40257;DHT22;25977;45.462;9.210;2024-03-02T09:00:18;12.10;99.90
40257;DHT22;25977;45.462;9.210;2024-03-02T09:02:44;12.20;99.90
40257;DHT22;25977;45.462;9.210;2024-03-02T09:05:10;12.20;99.90
40257;DHT22;25977;45.462;9.210;2024-03-02T09:07:36;12.20;99.90
40257;DHT22;25977;45.462;9.210;2024-03-02T09:10:08;12.20;99.90
40257;DHT22;25977;45.462;9.210;2024-03-02T09:12:34;12.20;99.90
40257;DHT22;25977;45.462;9.210;2024-03-02T09:15:01;12.30;99.90
40257;DHT22;25977;45.462;9.210;2024-03-02T09:17:27;12.20;99.90
40257;DHT22;25977;45.462;9.210;2024-03-02T09:19:52;12.10;99.90
40257;DHT22;25977;45.462;9.210;2024-03-02T09:22:21;12.10;99.90
40257;DHT22;25977;45.462;9.210;2024-03-02T09:24:47;12.30;99.90
40257;DHT22;25977;45.462;9.210;2024-03-02T09:27:13;12.30;99.90
40257;DHT22;25977;45.462;9.210;2024-03-02T09:29:38;12.10;99.90
40257;DHT22;25977;45.462;9.210;2024-03-02T09:32:05;12.00;99.90
40257;DHT22;25977;45.462;9.210;2024-03-02T09:34:32;11.90;99.90
40257;DHT22;25977;45.462;9.210;2024-03-02T09:36:57;12.00;99.90
40257;DHT22;25977;45.462;9.210;2024-03-02T09:39:23;12.00;99.90
40257;DHT22;25977;45.462;9.210;2024-03-02T09:41:51;11.80;99.90
40257;DHT22;25977;45.462;9.210;2024-03-02T09:44:17;11.90;99.90
40257;DHT22;25977;45.462;9.210;2024-03-02T09:46:43;11.90;99.90
40257;DHT22;25977;45.462;9.210;2024-03-02T09:49:10;11.70;99.90
40257;DHT22;25977;45.462;9.210;2024-03-02T09:51:37;11.70;99.90
40257;DHT22;25977;45.462;9.210;2024-03-02T09:54:03;11.50;99.90
40257;DHT22;25977;45.462;9.210;2024-03-02T09:56:29;11.60;99.90
40257;DHT22;25977;45.462;9.210;2024-03-02T09:58:54;11.60;99.90
40257;DHT22;25977;45.462;9.210;2024-03-02T10:01:20;11.80;99.90
40257;DHT22;25977;45.462;9.210;2024-03-02T10:03:47;12.00;99.90
40257;DHT22;25977;45.462;9.210;2024-03-02T10:06:27;12.00;99.90
40257;DHT22;25977;45.462;9.210;2024-03-02T10:08:54;11.90;99.90
40257;DHT22;25977;45.462;9.210;2024-03-02T10:11:31;11.90;99.90
40257;DHT22;25977;45.462;9.210;2024-03-02T10:14:12;11.90;99.90
40257;DHT22;25977;45.462;9.210;2024-03-02T10:16:40;11.70;99.90
40257;DHT22;25977;45.462;9.210;2024-03-02T10:21:47;11.70;99.90
40257;DHT22;25977;45.462;9.210;2024-03-02T10:24:15;11.80;99.90
40257;DHT22;25977;45.462;9.210;2024-03-02T10:26:41;11.80;99.90
40257;DHT22;25977;45.462;9.210;2024-03-02T10:29:08;12.00;99.90
40257;DHT22;25977;45.462;9.210;2024-03-02T10:31:37;12.10;99.90
40257;DHT22;25977;45.462;9.210;2024-03-02T10:34:03;12.20;99.90
40257;DHT22;25977;45.462;9.210;2024-03-02T10:36:29;12.00;99.90
40257;DHT22;25977;45.462;9.210;2024-03-02T10:38:56;12.10;99.90
40257;DHT22;25977;45.462;9.210;2024-03-02T10:41:26;12.20;99.90
40257;DHT22;25977;45.462;9.210;2024-03-02T10:43:56;12.00;99.90
40257;DHT22;25977;45.462;9.210;2024-03-02T10:46:31;12.10;99.90
40257;DHT22;25977;45.462;9.210;2024-03-02T10:48:58;12.10;99.90
40257;DHT22;25977;45.462;9.210;2024-03-02T10:51:28;12.10;99.90
40257;DHT22;25977;45.462;9.210;2024-03-02T10:53:57;12.20;99.90
40257;DHT22;25977;45.462;9.210;2024-03-02T10:56:30;12.10;99.90
40257;DHT22;25977;45.462;9.210;2024-03-02T10:59:13;12.10;99.90
40257;DHT22;25977;45.462;9.210;2024-03-02T11:01:43;12.10;99.90
40257;DHT22;25977;45.462;9.210;2024-03-02T11:04:09;12.20;99.90
40257;DHT22;25977;45.462;9.210;2024-03-02T11:06:38;12.30;99.90
40257;DHT22;25977;45.462;9.210;2024-03-02T11:09:07;12.20;99.90
40257;DHT22;25977;45.462;9.210;2024-03-02T11:11:41;12.20;99.90
40257;DHT22;25977;45.462;9.210;2024-03-02T11:14:13;12.30;99.90
40257;DHT22;25977;45.462;9.210;2024-03-02T11:16:39;12.40;99.90
40257;DHT22;25977;45.462;9.210;2024-03-02T11:19:12;12.50;99.90
40257;DHT22;25977;45.462;9.210;2024-03-02T11:21:38;12.50;99.90
40257;DHT22;25977;45.462;9.210;2024-03-02T11:26:50;12.60;99.90
40257;DHT22;25977;45.462;9.210;2024-03-02T11:32:06;12.70;99.90
40257;DHT22;25977;45.462;9.210;2024-03-02T11:34:36;12.70;99.90
40257;DHT22;25977;45.462;9.210;2024-03-02T11:37:02;12.70;99.90
40257;DHT22;25977;45.462;9.210;2024-03-02T11:39:28;12.70;99.90
40257;DHT22;25977;45.462;9.210;2024-03-02T11:41:56;12.80;99.90
40257;DHT22;25977;45.462;9.210;2024-03-02T11:44:21;12.80;99.90
40257;DHT22;25977;45.462;9.210;2024-03-02T11:47:08;12.80;99.90
40257;DHT22;25977;45.462;9.210;2024-03-02T11:49:49;12.80;99.90
40257;DHT22;25977;45.462;9.210;2024-03-02T11:52:17;12.90;99.90
40257;DHT22;25977;45.462;9.210;2024-03-02T11:54:45;12.90;99.90
40257;DHT22;25977;45.462;9.210;2024-03-02T11:57:21;12.80;99.90
40257;DHT22;25977;45.462;9.210;2024-03-02T11:59:51;12.90;99.90
40257;DHT22;25977;45.462;9.210;2024-03-02T12:02:19;12.90;99.90
40257;DHT22;25977;45.462;9.210;2024-03-02T12:04:46;12.90;99.90
40257;DHT22;25977;45.462;9.210;2024-03-02T12:07:21;13.00;99.90
40257;DHT22;25977;45.462;9.210;2024-03-02T12:09:48;13.00;99.90
40257;DHT22;25977;45.462;9.210;2024-03-02T12:12:13;13.00;99.90
40257;DHT22;25977;45.462;9.210;2024-03-02T12:14:51;12.60;99.90
40257;DHT22;25977;45.462;9.210;2024-03-02T12:17:17;12.70;99.90
40257;DHT22;25977;45.462;9.210;2024-03-02T12:19:42;12.80;99.90
40257;DHT22;25977;45.462;9.210;2024-03-02T12:22:08;12.90;99.90
40257;DHT22;25977;45.462;9.210;2024-03-02T12:24:34;12.90;99.90
40257;DHT22;25977;45.462;9.210;2024-03-02T12:27:00;13.00;99.90
40257;DHT22;25977;45.462;9.210;2024-03-02T12:29:26;13.00;99.90
40257;DHT22;25977;45.462;9.210;2024-03-02T12:31:52;12.90;99.90
40257;DHT22;25977;45.462;9.210;2024-03-02T12:34:19;12.90;99.90
40257;DHT22;25977;45.462;9.210;2024-03-02T12:36:48;13.00;99.90
40257;DHT22;25977;45.462;9.210;2024-03-02T12:39:20;13.00;99.90
40257;DHT22;25977;45.462;9.210;2024-03-02T12:41:49;13.00;99.90
40257;DHT22;25977;45.462;9.210;2024-03-02T12:44:19;13.10;99.90
40257;DHT22;25977;45.462;9.210;2024-03-02T12:46:46;13.10;99.90
40257;DHT22;25977;45.462;9.210;2024-03-02T12:49:16;13.10;99.90
40257;DHT22;25977;45.462;9.210;2024-03-02T12:51:42;13.10;99.90
40257;DHT22;25977;45.462;9.210;2024-03-02T12:54:09;13.00;99.90
40257;DHT22;25977;45.462;9.210;2024-03-02T12:56:36;12.90;99.90
40257;DHT22;25977;45.462;9.210;2024-03-02T12:59:03;13.00;99.90
40257;DHT22;25977;45.462;9.210;2024-03-02T13:01:29;13.00;99.90
40257;DHT22;25977;45.462;9.210;2024-03-02T13:03:57;13.00;99.90
40257;DHT22;25977;45.462;9.210;2024-03-02T13:06:24;13.10;99.90
40257;DHT22;25977;45.462;9.210;2024-03-02T13:08:53;13.10;99.90
40257;DHT22;25977;45.462;9.210;2024-03-02T13:11:18;13.10;99.90
40257;DHT22;25977;45.462;9.210;2024-03-02T13:13:45;13.20;99.90
40257;DHT22;25977;45.462;9.210;2024-03-02T13:16:12;13.10;99.90
40257;DHT22;25977;45.462;9.210;2024-03-02T13:18:41;13.00;99.90
40257;DHT22;25977;45.462;9.210;2024-03-02T13:21:07;13.00;99.90
40257;DHT22;25977;45.462;9.210;2024-03-02T13:23:33;13.00;99.90
40257;DHT22;25977;45.462;9.210;2024-03-02T13:25:59;13.10;99.90
40257;DHT22;25977;45.462;9.210;2024-03-02T13:28:28;13.00;99.90
40257;DHT22;25977;45.462;9.210;2024-03-02T13:30:53;13.10;99.90
40257;DHT22;25977;45.462;9.210;2024-03-02T13:33:19;13.10;99.90
40257;DHT22;25977;45.462;9.210;2024-03-02T13:35:49;13.10;99.90
40257;DHT22;25977;45.462;9.210;2024-03-02T13:38:17;13.00;99.90
40257;DHT22;25977;45.462;9.210;2024-03-02T13:40:43;13.10;99.90
40257;DHT22;25977;45.462;9.210;2024-03-02T13:43:09;13.20;99.90
40257;DHT22;25977;45.462;9.210;2024-03-02T13:45:35;13.30;99.90
40257;DHT22;25977;45.462;9.210;2024-03-02T13:48:02;13.20;99.90
40257;DHT22;25977;45.462;9.210;2024-03-02T13:50:28;13.00;99.90
40257;DHT22;25977;45.462;9.210;2024-03-02T13:52:55;13.10;99.90
40257;DHT22;25977;45.462;9.210;2024-03-02T13:55:22;13.10;99.90
40257;DHT22;25977;45.462;9.210;2024-03-02T13:57:48;13.10;99.90
40257;DHT22;25977;45.462;9.210;2024-03-02T14:00:16;13.00;99.90
40257;DHT22;25977;45.462;9.210;2024-03-02T14:02:43;13.10;99.90
40257;DHT22;25977;45.462;9.210;2024-03-02T14:05:08;12.90;99.90
40257;DHT22;25977;45.462;9.210;2024-03-02T14:07:43;12.80;99.90
40257;DHT22;25977;45.462;9.210;2024-03-02T14:10:09;12.90;99.90
40257;DHT22;25977;45.462;9.210;2024-03-02T14:12:36;13.00;99.90
40257;DHT22;25977;45.462;9.210;2024-03-02T14:15:02;13.10;99.90
40257;DHT22;25977;45.462;9.210;2024-03-02T14:17:29;13.30;99.90
40257;DHT22;25977;45.462;9.210;2024-03-02T14:19:55;13.20;99.90
40257;DHT22;25977;45.462;9.210;2024-03-02T14:22:21;13.10;99.90
40257;DHT22;25977;45.462;9.210;2024-03-02T14:24:46;12.90;99.90
40257;DHT22;25977;45.462;9.210;2024-03-02T14:27:13;13.00;99.90
40257;DHT22;25977;45.462;9.210;2024-03-02T14:29:41;13.20;99.90
40257;DHT22;25977;45.462;9.210;2024-03-02T14:32:07;13.20;99.90
40257;DHT22;25977;45.462;9.210;2024-03-02T14:34:33;13.30;99.90
40257;DHT22;25977;45.462;9.210;2024-03-02T14:36:59;13.10;99.90
40257;DHT22;25977;45.462;9.210;2024-03-02T14:39:26;12.90;99.90
40257;DHT22;25977;45.462;9.210;2024-03-02T14:41:52;13.00;99.90
40257;DHT22;25977;45.462;9.210;2024-03-02T14:44:17;13.10;99.90
40257;DHT22;25977;45.462;9.210;2024-03-02T14:46:46;13.00;99.90
40257;DHT22;25977;45.462;9.210;2024-03-02T14:49:12;13.10;99.90
40257;DHT22;25977;45.462;9.210;2024-03-02T14:51:38;13.00;99.90
40257;DHT22;25977;45.462;9.210;2024-03-02T14:54:04;13.00;99.90
40257;DHT22;25977;45.462;9.210;2024-03-02T14:56:29;12.90;99.90
40257;DHT22;25977;45.462;9.210;2024-03-02T14:58:55;12.80;99.90
40257;DHT22;25977;45.462;9.210;2024-03-02T15:01:21;12.80;99.90
40257;DHT22;25977;45.462;9.210;2024-03-02T15:03:53;12.70;99.90
40257;DHT22;25977;45.462;9.210;2024-03-02T15:06:19;12.80;99.90
40257;DHT22;25977;45.462;9.210;2024-03-02T15:08:45;12.90;99.90
40257;DHT22;25977;45.462;9.210;2024-03-02T15:11:14;12.90;99.90
40257;DHT22;25977;45.462;9.210;2024-03-02T15:13:40;13.00;99.90
40257;DHT22;25977;45.462;9.210;2024-03-02T15:16:06;12.90;99.90
40257;DHT22;25977;45.462;9.210;2024-03-02T15:18:31;13.00;99.90
40257;DHT22;25977;45.462;9.210;2024-03-02T15:20:57;12.90;99.90
40257;DHT22;25977;45.462;9.210;2024-03-02T15:23:24;12.60;99.90
40257;DHT22;25977;45.462;9.210;2024-03-02T15:25:49;12.70;99.90
40257;DHT22;25977;45.462;9.210;2024-03-02T15:28:16;12.70;99.90
40257;DHT22;25977;45.462;9.210;2024-03-02T15:30:41;12.80;99.90
40257;DHT22;25977;45.462;9.210;2024-03-02T15:33:07;12.80;99.90
40257;DHT22;25977;45.462;9.210;2024-03-02T15:35:32;12.90;99.90
40257;DHT22;25977;45.462;9.210;2024-03-02T15:37:58;12.90;99.90
40257;DHT22;25977;45.462;9.210;2024-03-02T15:40:24;12.70;99.90
40257;DHT22;25977;45.462;9.210;2024-03-02T15:42:50;12.60;99.90